Campeche, Mexico

12:13 PM EST on February 12, 2016 (GMT -0500)
xe3wb | | Change Station
CLOSE
Current Station
Personal Weather Station
Location: Campeche, CAMPECHE
Elevation: 23 ft
Nearby Weather Stations

Elev 23 ft 19.84 °N, 90.50 °W | Updated 4 minutes ago

Partly Cloudy
Partly Cloudy
81.3 °F
Feels Like 82 °F
N
6.3
Wind Variable Wind from ESE

Today
High -- | Low -- °F
--% Chance of Precip.
Yesterday
High -- | Low -- °F
Precip. -- in
Pressure 30.20 in
Visibility 7.0 miles
Clouds Few 4000 ft
Heat Index 82 °F
Dew Point 61 °F
Humidity 50%
Rainfall 0.00 in
Snow Depth Not available.
7:32 AM 6:59 PM
Waxing Crescent, 22% visible
METAR MMCP 121641Z 09016KT 7SM FEW040 24/16 A3020 RMK 8/100
Pressure 30.20 in
Visibility 7.0 miles
Clouds Few 4000 ft
Heat Index 82 °F
Dew Point 61 °F
Humidity 50%
Rainfall 0.00 in
Snow Depth Not available.
7:32 AM 6:59 PM
Waxing Crescent, 22% visible
METAR MMCP 121641Z 09016KT 7SM FEW040 24/16 A3020 RMK 8/100

10-Day Weather Forecast

No radar image for this location.
×

Almanac

Astronomy

Feb. 12, 2016 Rise Set
Actual Time
Civil Twilight
Nautical Twilight
Astronomical Twilight
Moon
Length of Visible Light
Length of Day
Tomorrow will be .
, % of the Moon is Illuminated

Today's Extremes

Country Highs Country Lows

Community

WunderPhotos

Upload Photos

1,892,353 photos uploaded!

WunderBlog® & News

Nearby

Air Quality

  Air Quality AQ Index Pollutant
Not available.

Snow Depth

Station Depth Elevation

Earthquake Activity

City Distance Mag. Time & Date
Minimum magnitude displayed is 2.5.

Coastal Water Temperatures

Place Temperature

Stations

Nearby Weather Stations

Station Location Temp. Windchill Dew Point Humidity Wind Precip. Elev Updated Type